sensor_id;sensor_type;location;lat;lon;timestamp;temperature;humidity
18781;DHT22;9519;51.890;8.970;2022-11-30T00:00:57;8.80;99.90
18781;DHT22;9519;51.890;8.970;2022-11-30T00:06:04;8.80;99.90
18781;DHT22;9519;51.890;8.970;2022-11-30T00:11:09;8.80;99.90
18781;DHT22;9519;51.890;8.970;2022-11-30T00:16:12;8.80;99.90
18781;DHT22;9519;51.890;8.970;2022-11-30T00:21:15;8.70;99.90
18781;DHT22;9519;51.890;8.970;2022-11-30T00:26:18;8.60;99.90
18781;DHT22;9519;51.890;8.970;2022-11-30T00:31:22;8.50;99.90
18781;DHT22;9519;51.890;8.970;2022-11-30T00:36:25;8.50;99.90
18781;DHT22;9519;51.890;8.970;2022-11-30T00:41:27;8.40;99.90
18781;DHT22;9519;51.890;8.970;2022-11-30T00:46:29;8.30;99.90
18781;DHT22;9519;51.890;8.970;2022-11-30T00:51:33;8.30;99.90
18781;DHT22;9519;51.890;8.970;2022-11-30T00:56:35;8.20;99.90
18781;DHT22;9519;51.890;8.970;2022-11-30T01:01:37;8.20;99.90
18781;DHT22;9519;51.890;8.970;2022-11-30T01:06:40;8.20;99.90
18781;DHT22;9519;51.890;8.970;2022-11-30T01:11:42;8.10;99.90
18781;DHT22;9519;51.890;8.970;2022-11-30T01:16:45;8.10;99.90
18781;DHT22;9519;51.890;8.970;2022-11-30T01:21:48;8.10;99.90
18781;DHT22;9519;51.890;8.970;2022-11-30T01:26:50;8.00;99.90
18781;DHT22;9519;51.890;8.970;2022-11-30T01:31:52;8.10;99.90
18781;DHT22;9519;51.890;8.970;2022-11-30T01:36:56;8.10;99.90
18781;DHT22;9519;51.890;8.970;2022-11-30T01:41:58;8.10;99.90
18781;DHT22;9519;51.890;8.970;2022-11-30T01:47:02;8.20;99.90
18781;DHT22;9519;51.890;8.970;2022-11-30T01:52:10;8.20;99.90
18781;DHT22;9519;51.890;8.970;2022-11-30T01:57:18;8.20;99.90
18781;DHT22;9519;51.890;8.970;2022-11-30T02:02:32;8.10;99.90
18781;DHT22;9519;51.890;8.970;2022-11-30T02:07:45;8.10;99.90
18781;DHT22;9519;51.890;8.970;2022-11-30T02:13:20;8.10;99.90
18781;DHT22;9519;51.890;8.970;2022-11-30T02:18:37;8.10;99.90
18781;DHT22;9519;51.890;8.970;2022-11-30T02:24:08;8.20;99.90
18781;DHT22;9519;51.890;8.970;2022-11-30T02:29:46;8.10;99.90
18781;DHT22;9519;51.890;8.970;2022-11-30T02:34:56;8.10;99.90
18781;DHT22;9519;51.890;8.970;2022-11-30T02:40:00;8.00;99.90
18781;DHT22;9519;51.890;8.970;2022-11-30T02:45:05;8.00;99.90
18781;DHT22;9519;51.890;8.970;2022-11-30T02:50:14;7.90;99.90
18781;DHT22;9519;51.890;8.970;2022-11-30T02:55:19;7.90;99.90
18781;DHT22;9519;51.890;8.970;2022-11-30T03:00:23;8.00;99.90
18781;DHT22;9519;51.890;8.970;2022-11-30T03:05:25;7.90;99.90
18781;DHT22;9519;51.890;8.970;2022-11-30T03:10:28;7.90;99.90
18781;DHT22;9519;51.890;8.970;2022-11-30T03:15:32;7.90;99.90
18781;DHT22;9519;51.890;8.970;2022-11-30T03:20:39;7.90;99.90
18781;DHT22;9519;51.890;8.970;2022-11-30T03:25:42;7.90;99.90
18781;DHT22;9519;51.890;8.970;2022-11-30T03:30:48;7.80;99.90
18781;DHT22;9519;51.890;8.970;2022-11-30T03:35:58;7.90;99.90
18781;DHT22;9519;51.890;8.970;2022-11-30T03:41:03;7.90;99.90
18781;DHT22;9519;51.890;8.970;2022-11-30T03:46:07;7.90;99.90
18781;DHT22;9519;51.890;8.970;2022-11-30T03:51:10;7.90;99.90
18781;DHT22;9519;51.890;8.970;2022-11-30T03:56:13;7.90;99.90
18781;DHT22;9519;51.890;8.970;2022-11-30T04:01:19;7.80;99.90
18781;DHT22;9519;51.890;8.970;2022-11-30T04:06:23;7.90;99.90
18781;DHT22;9519;51.890;8.970;2022-11-30T04:11:25;7.80;99.90
18781;DHT22;9519;51.890;8.970;2022-11-30T04:16:28;7.80;99.90
18781;DHT22;9519;51.890;8.970;2022-11-30T04:21:30;7.80;99.90
18781;DHT22;9519;51.890;8.970;2022-11-30T04:26:32;7.80;99.90
18781;DHT22;9519;51.890;8.970;2022-11-30T04:31:36;7.80;99.90
18781;DHT22;9519;51.890;8.970;2022-11-30T04:36:38;7.80;99.90
18781;DHT22;9519;51.890;8.970;2022-11-30T04:41:40;7.80;99.90
18781;DHT22;9519;51.890;8.970;2022-11-30T04:46:43;7.80;99.90
18781;DHT22;9519;51.890;8.970;2022-11-30T04:51:45;7.80;99.90
18781;DHT22;9519;51.890;8.970;2022-11-30T04:56:47;7.80;99.90
18781;DHT22;9519;51.890;8.970;2022-11-30T05:01:51;7.80;99.90
18781;DHT22;9519;51.890;8.970;2022-11-30T05:06:53;7.80;99.90
18781;DHT22;9519;51.890;8.970;2022-11-30T05:11:55;7.80;99.90
18781;DHT22;9519;51.890;8.970;2022-11-30T05:16:59;7.80;99.90
18781;DHT22;9519;51.890;8.970;2022-11-30T05:22:01;7.80;99.90
18781;DHT22;9519;51.890;8.970;2022-11-30T05:27:03;7.90;99.90
18781;DHT22;9519;51.890;8.970;2022-11-30T05:32:06;7.90;99.90
18781;DHT22;9519;51.890;8.970;2022-11-30T05:37:08;7.80;99.90
18781;DHT22;9519;51.890;8.970;2022-11-30T05:42:10;7.80;99.90
18781;DHT22;9519;51.890;8.970;2022-11-30T05:47:14;7.80;99.90
18781;DHT22;9519;51.890;8.970;2022-11-30T05:52:17;7.70;99.90
18781;DHT22;9519;51.890;8.970;2022-11-30T05:57:19;7.70;99.90
18781;DHT22;9519;51.890;8.970;2022-11-30T06:02:23;7.70;99.90
18781;DHT22;9519;51.890;8.970;2022-11-30T06:07:25;7.70;99.90
18781;DHT22;9519;51.890;8.970;2022-11-30T06:12:27;7.70;99.90
18781;DHT22;9519;51.890;8.970;2022-11-30T06:17:30;7.70;99.90
18781;DHT22;9519;51.890;8.970;2022-11-30T06:22:32;7.70;99.90
18781;DHT22;9519;51.890;8.970;2022-11-30T06:27:34;7.70;99.90
18781;DHT22;9519;51.890;8.970;2022-11-30T06:32:38;7.70;99.90
18781;DHT22;9519;51.890;8.970;2022-11-30T06:37:40;7.70;99.90
18781;DHT22;9519;51.890;8.970;2022-11-30T06:42:42;7.80;99.90
18781;DHT22;9519;51.890;8.970;2022-11-30T06:47:46;7.80;99.90
18781;DHT22;9519;51.890;8.970;2022-11-30T06:52:48;7.90;99.90
18781;DHT22;9519;51.890;8.970;2022-11-30T06:57:50;7.80;99.90
18781;DHT22;9519;51.890;8.970;2022-11-30T07:02:53;7.80;99.90
18781;DHT22;9519;51.890;8.970;2022-11-30T07:07:55;7.90;99.90
18781;DHT22;9519;51.890;8.970;2022-11-30T07:12:57;7.90;99.90
18781;DHT22;9519;51.890;8.970;2022-11-30T07:18:01;7.90;99.90
18781;DHT22;9519;51.890;8.970;2022-11-30T07:23:03;7.90;99.90
18781;DHT22;9519;51.890;8.970;2022-11-30T07:28:20;7.80;99.90
18781;DHT22;9519;51.890;8.970;2022-11-30T07:33:23;7.90;99.90
18781;DHT22;9519;51.890;8.970;2022-11-30T07:38:25;7.80;99.90
18781;DHT22;9519;51.890;8.970;2022-11-30T07:43:27;7.90;99.90
18781;DHT22;9519;51.890;8.970;2022-11-30T07:48:31;7.90;99.90
18781;DHT22;9519;51.890;8.970;2022-11-30T07:53:33;7.80;99.90
18781;DHT22;9519;51.890;8.970;2022-11-30T07:58:36;7.80;99.90
18781;DHT22;9519;51.890;8.970;2022-11-30T08:03:40;7.80;99.90
18781;DHT22;9519;51.890;8.970;2022-11-30T08:08:43;7.90;99.90
18781;DHT22;9519;51.890;8.970;2022-11-30T08:13:46;7.80;99.90
18781;DHT22;9519;51.890;8.970;2022-11-30T08:18:50;7.90;99.90
18781;DHT22;9519;51.890;8.970;2022-11-30T08:23:54;7.90;99.90
18781;DHT22;9519;51.890;8.970;2022-11-30T08:29:00;7.90;99.90
18781;DHT22;9519;51.890;8.970;2022-11-30T08:34:06;7.90;99.90
18781;DHT22;9519;51.890;8.970;2022-11-30T08:39:11;7.80;99.90
18781;DHT22;9519;51.890;8.970;2022-11-30T08:44:13;7.90;99.90
18781;DHT22;9519;51.890;8.970;2022-11-30T08:49:17;7.90;99.90
18781;DHT22;9519;51.890;8.970;2022-11-30T08:54:20;8.00;99.90
18781;DHT22;9519;51.890;8.970;2022-11-30T08:59:22;8.00;99.90
18781;DHT22;9519;51.890;8.970;2022-11-30T09:04:27;8.00;99.90
18781;DHT22;9519;51.890;8.970;2022-11-30T09:09:29;7.90;99.90
18781;DHT22;9519;51.890;8.970;2022-11-30T09:14:32;7.90;99.90
18781;DHT22;9519;51.890;8.970;2022-11-30T09:19:35;7.80;99.90
18781;DHT22;9519;51.890;8.970;2022-11-30T09:24:37;7.80;99.90
18781;DHT22;9519;51.890;8.970;2022-11-30T09:29:42;7.80;99.90
18781;DHT22;9519;51.890;8.970;2022-11-30T09:34:45;7.80;99.90
18781;DHT22;9519;51.890;8.970;2022-11-30T09:39:47;7.80;99.90
18781;DHT22;9519;51.890;8.970;2022-11-30T09:44:57;7.80;99.90
18781;DHT22;9519;51.890;8.970;2022-11-30T09:50:10;7.90;99.90
18781;DHT22;9519;51.890;8.970;2022-11-30T09:55:20;7.90;99.90
18781;DHT22;9519;51.890;8.970;2022-11-30T10:00:26;7.90;99.90
18781;DHT22;9519;51.890;8.970;2022-11-30T10:05:40;7.90;99.90
18781;DHT22;9519;51.890;8.970;2022-11-30T10:10:53;7.80;99.90
18781;DHT22;9519;51.890;8.970;2022-11-30T10:16:13;7.80;99.90
18781;DHT22;9519;51.890;8.970;2022-11-30T10:21:39;7.80;99.90
18781;DHT22;9519;51.890;8.970;2022-11-30T10:26:53;7.80;99.90
18781;DHT22;9519;51.890;8.970;2022-11-30T10:31:58;7.80;99.90
18781;DHT22;9519;51.890;8.970;2022-11-30T10:37:08;7.80;99.90
18781;DHT22;9519;51.890;8.970;2022-11-30T10:42:16;7.80;99.90
18781;DHT22;9519;51.890;8.970;2022-11-30T10:47:25;7.80;99.90
18781;DHT22;9519;51.890;8.970;2022-11-30T10:52:37;7.90;99.90
18781;DHT22;9519;51.890;8.970;2022-11-30T10:57:46;7.90;99.90
18781;DHT22;9519;51.890;8.970;2022-11-30T11:02:50;7.90;99.90
18781;DHT22;9519;51.890;8.970;2022-11-30T11:07:56;7.90;99.90
18781;DHT22;9519;51.890;8.970;2022-11-30T11:12:59;8.00;99.90
18781;DHT22;9519;51.890;8.970;2022-11-30T11:18:19;8.00;99.90
18781;DHT22;9519;51.890;8.970;2022-11-30T11:23:30;8.00;99.90
18781;DHT22;9519;51.890;8.970;2022-11-30T11:28:35;7.90;99.90
18781;DHT22;9519;51.890;8.970;2022-11-30T11:33:50;7.90;99.90
18781;DHT22;9519;51.890;8.970;2022-11-30T11:38:56;7.90;99.90
18781;DHT22;9519;51.890;8.970;2022-11-30T11:44:01;8.00;99.90
18781;DHT22;9519;51.890;8.970;2022-11-30T11:49:17;7.90;99.90
18781;DHT22;9519;51.890;8.970;2022-11-30T11:54:29;8.00;99.90
18781;DHT22;9519;51.890;8.970;2022-11-30T11:59:39;7.90;99.90
18781;DHT22;9519;51.890;8.970;2022-11-30T12:04:50;7.90;99.90
18781;DHT22;9519;51.890;8.970;2022-11-30T12:10:05;7.90;99.90
18781;DHT22;9519;51.890;8.970;2022-11-30T12:15:25;8.00;99.90
18781;DHT22;9519;51.890;8.970;2022-11-30T12:20:41;8.00;99.90
18781;DHT22;9519;51.890;8.970;2022-11-30T12:26:02;8.00;99.90
18781;DHT22;9519;51.890;8.970;2022-11-30T12:31:11;8.10;99.90
18781;DHT22;9519;51.890;8.970;2022-11-30T12:36:21;8.10;99.90
18781;DHT22;9519;51.890;8.970;2022-11-30T12:41:38;8.10;99.90
18781;DHT22;9519;51.890;8.970;2022-11-30T12:46:53;8.20;99.90
18781;DHT22;9519;51.890;8.970;2022-11-30T12:52:10;8.20;99.90
18781;DHT22;9519;51.890;8.970;2022-11-30T12:57:25;8.20;99.90
18781;DHT22;9519;51.890;8.970;2022-11-30T13:03:15;8.20;99.90
18781;DHT22;9519;51.890;8.970;2022-11-30T13:08:37;8.30;99.90
18781;DHT22;9519;51.890;8.970;2022-11-30T13:13:51;8.30;99.90
18781;DHT22;9519;51.890;8.970;2022-11-30T13:19:02;8.30;99.90
18781;DHT22;9519;51.890;8.970;2022-11-30T13:24:20;8.30;99.90
18781;DHT22;9519;51.890;8.970;2022-11-30T13:29:48;8.30;99.90
18781;DHT22;9519;51.890;8.970;2022-11-30T13:40:55;8.30;99.90
18781;DHT22;9519;51.890;8.970;2022-11-30T13:46:14;8.40;99.90
18781;DHT22;9519;51.890;8.970;2022-11-30T13:51:37;8.30;99.90
18781;DHT22;9519;51.890;8.970;2022-11-30T13:56:41;8.30;99.90
18781;DHT22;9519;51.890;8.970;2022-11-30T14:01:45;8.30;99.90
18781;DHT22;9519;51.890;8.970;2022-11-30T14:06:48;8.30;99.90
18781;DHT22;9519;51.890;8.970;2022-11-30T14:11:50;8.20;99.90
18781;DHT22;9519;51.890;8.970;2022-11-30T14:16:55;8.20;99.90
18781;DHT22;9519;51.890;8.970;2022-11-30T14:21:59;8.20;99.90
18781;DHT22;9519;51.890;8.970;2022-11-30T14:27:02;8.10;99.90
18781;DHT22;9519;51.890;8.970;2022-11-30T14:32:10;8.00;99.90
18781;DHT22;9519;51.890;8.970;2022-11-30T14:37:17;8.00;99.90
18781;DHT22;9519;51.890;8.970;2022-11-30T14:42:23;8.00;99.90
18781;DHT22;9519;51.890;8.970;2022-11-30T14:47:30;7.90;99.90
18781;DHT22;9519;51.890;8.970;2022-11-30T14:52:46;7.90;99.90
18781;DHT22;9519;51.890;8.970;2022-11-30T14:58:02;7.80;99.90
18781;DHT22;9519;51.890;8.970;2022-11-30T15:03:20;7.80;99.90
18781;DHT22;9519;51.890;8.970;2022-11-30T15:08:31;7.80;99.90
18781;DHT22;9519;51.890;8.970;2022-11-30T15:13:38;7.70;99.90
18781;DHT22;9519;51.890;8.970;2022-11-30T15:18:45;7.70;99.90
18781;DHT22;9519;51.890;8.970;2022-11-30T15:23:47;7.70;99.90
18781;DHT22;9519;51.890;8.970;2022-11-30T15:28:54;7.60;99.90
18781;DHT22;9519;51.890;8.970;2022-11-30T15:34:00;7.60;99.90
18781;DHT22;9519;51.890;8.970;2022-11-30T15:39:05;7.60;99.90
18781;DHT22;9519;51.890;8.970;2022-11-30T15:44:21;7.60;99.90
18781;DHT22;9519;51.890;8.970;2022-11-30T15:49:27;7.60;99.90
18781;DHT22;9519;51.890;8.970;2022-11-30T15:54:44;7.60;99.90
18781;DHT22;9519;51.890;8.970;2022-11-30T16:00:02;7.60;99.90
18781;DHT22;9519;51.890;8.970;2022-11-30T16:05:24;7.60;99.90
18781;DHT22;9519;51.890;8.970;2022-11-30T16:10:29;7.60;99.90
18781;DHT22;9519;51.890;8.970;2022-11-30T16:15:35;7.60;99.90
18781;DHT22;9519;51.890;8.970;2022-11-30T16:20:39;7.60;99.90
18781;DHT22;9519;51.890;8.970;2022-11-30T16:25:42;7.60;99.90
18781;DHT22;9519;51.890;8.970;2022-11-30T16:30:45;7.60;99.90
18781;DHT22;9519;51.890;8.970;2022-11-30T16:35:54;7.60;99.90
18781;DHT22;9519;51.890;8.970;2022-11-30T16:41:10;7.60;99.90
18781;DHT22;9519;51.890;8.970;2022-11-30T16:46:17;7.60;99.90
18781;DHT22;9519;51.890;8.970;2022-11-30T16:51:23;7.60;99.90
18781;DHT22;9519;51.890;8.970;2022-11-30T16:56:28;7.60;99.90
18781;DHT22;9519;51.890;8.970;2022-11-30T17:01:33;7.60;99.90
18781;DHT22;9519;51.890;8.970;2022-11-30T17:06:38;7.50;99.90
18781;DHT22;9519;51.890;8.970;2022-11-30T17:11:41;7.50;99.90
18781;DHT22;9519;51.890;8.970;2022-11-30T17:16:45;7.50;99.90
18781;DHT22;9519;51.890;8.970;2022-11-30T17:21:48;7.40;99.90
18781;DHT22;9519;51.890;8.970;2022-11-30T17:26:50;7.40;99.90
18781;DHT22;9519;51.890;8.970;2022-11-30T17:31:52;7.40;99.90
18781;DHT22;9519;51.890;8.970;2022-11-30T17:36:55;7.40;99.90
18781;DHT22;9519;51.890;8.970;2022-11-30T17:41:57;7.40;99.90
18781;DHT22;9519;51.890;8.970;2022-11-30T17:47:00;7.40;99.90
18781;DHT22;9519;51.890;8.970;2022-11-30T17:52:03;7.40;99.90
18781;DHT22;9519;51.890;8.970;2022-11-30T17:57:05;7.30;99.90
18781;DHT22;9519;51.890;8.970;2022-11-30T18:02:09;7.40;99.90
18781;DHT22;9519;51.890;8.970;2022-11-30T18:07:13;7.40;99.90
18781;DHT22;9519;51.890;8.970;2022-11-30T18:12:15;7.40;99.90
18781;DHT22;9519;51.890;8.970;2022-11-30T18:17:18;7.30;99.90
18781;DHT22;9519;51.890;8.970;2022-11-30T18:22:21;7.30;99.90
18781;DHT22;9519;51.890;8.970;2022-11-30T18:27:23;7.30;99.90
18781;DHT22;9519;51.890;8.970;2022-11-30T18:32:26;7.40;99.90
18781;DHT22;9519;51.890;8.970;2022-11-30T18:37:31;7.30;99.90
18781;DHT22;9519;51.890;8.970;2022-11-30T18:42:33;7.30;99.90
18781;DHT22;9519;51.890;8.970;2022-11-30T18:47:36;7.30;99.90
18781;DHT22;9519;51.890;8.970;2022-11-30T18:52:39;7.30;99.90
18781;DHT22;9519;51.890;8.970;2022-11-30T18:57:41;7.40;99.90
18781;DHT22;9519;51.890;8.970;2022-11-30T19:02:43;7.40;99.90
18781;DHT22;9519;51.890;8.970;2022-11-30T19:07:47;7.40;99.90
18781;DHT22;9519;51.890;8.970;2022-11-30T19:12:49;7.40;99.90
18781;DHT22;9519;51.890;8.970;2022-11-30T19:17:51;7.40;99.90
18781;DHT22;9519;51.890;8.970;2022-11-30T19:22:56;7.40;99.90
18781;DHT22;9519;51.890;8.970;2022-11-30T19:27:58;7.40;99.90
18781;DHT22;9519;51.890;8.970;2022-11-30T19:33:00;7.40;99.90
18781;DHT22;9519;51.890;8.970;2022-11-30T19:38:03;7.30;99.90
18781;DHT22;9519;51.890;8.970;2022-11-30T19:43:05;7.30;99.90
18781;DHT22;9519;51.890;8.970;2022-11-30T19:48:07;7.30;99.90
18781;DHT22;9519;51.890;8.970;2022-11-30T19:53:11;7.30;99.90
18781;DHT22;9519;51.890;8.970;2022-11-30T19:58:13;7.20;99.90
18781;DHT22;9519;51.890;8.970;2022-11-30T20:03:15;7.20;99.90
18781;DHT22;9519;51.890;8.970;2022-11-30T20:08:18;7.20;99.90
18781;DHT22;9519;51.890;8.970;2022-11-30T20:13:20;7.20;99.90
18781;DHT22;9519;51.890;8.970;2022-11-30T20:18:23;7.20;99.90
18781;DHT22;9519;51.890;8.970;2022-11-30T20:23:26;7.20;99.90
18781;DHT22;9519;51.890;8.970;2022-11-30T20:28:28;7.20;99.90
18781;DHT22;9519;51.890;8.970;2022-11-30T20:33:30;7.30;99.90
18781;DHT22;9519;51.890;8.970;2022-11-30T20:38:34;7.20;99.90
18781;DHT22;9519;51.890;8.970;2022-11-30T20:43:36;7.20;99.90
18781;DHT22;9519;51.890;8.970;2022-11-30T20:48:38;7.20;99.90
18781;DHT22;9519;51.890;8.970;2022-11-30T20:53:42;7.20;99.90
18781;DHT22;9519;51.890;8.970;2022-11-30T20:58:44;7.10;99.90
18781;DHT22;9519;51.890;8.970;2022-11-30T21:03:46;7.20;99.90
18781;DHT22;9519;51.890;8.970;2022-11-30T21:08:50;7.20;99.90
18781;DHT22;9519;51.890;8.970;2022-11-30T21:13:52;7.10;99.90
18781;DHT22;9519;51.890;8.970;2022-11-30T21:18:55;7.10;99.90
18781;DHT22;9519;51.890;8.970;2022-11-30T21:24:01;7.10;99.90
18781;DHT22;9519;51.890;8.970;2022-11-30T21:29:08;7.10;99.90
18781;DHT22;9519;51.890;8.970;2022-11-30T21:34:11;7.10;99.90
18781;DHT22;9519;51.890;8.970;2022-11-30T21:39:17;7.10;99.90
18781;DHT22;9519;51.890;8.970;2022-11-30T21:44:19;7.10;99.90
18781;DHT22;9519;51.890;8.970;2022-11-30T21:49:21;7.00;99.90
18781;DHT22;9519;51.890;8.970;2022-11-30T21:54:25;7.10;99.90
18781;DHT22;9519;51.890;8.970;2022-11-30T21:59:28;7.10;99.90
18781;DHT22;9519;51.890;8.970;2022-11-30T22:04:35;7.10;99.90
18781;DHT22;9519;51.890;8.970;2022-11-30T22:09:39;7.10;99.90
18781;DHT22;9519;51.890;8.970;2022-11-30T22:14:41;7.10;99.90
18781;DHT22;9519;51.890;8.970;2022-11-30T22:19:43;7.10;99.90
18781;DHT22;9519;51.890;8.970;2022-11-30T22:24:47;7.00;99.90
18781;DHT22;9519;51.890;8.970;2022-11-30T22:29:49;7.10;99.90
18781;DHT22;9519;51.890;8.970;2022-11-30T22:34:51;7.10;99.90
18781;DHT22;9519;51.890;8.970;2022-11-30T22:39:54;7.10;99.90
18781;DHT22;9519;51.890;8.970;2022-11-30T22:44:56;7.10;99.90
18781;DHT22;9519;51.890;8.970;2022-11-30T22:49:58;7.00;99.90
18781;DHT22;9519;51.890;8.970;2022-11-30T22:55:02;7.00;99.90
18781;DHT22;9519;51.890;8.970;2022-11-30T23:00:05;7.00;99.90
18781;DHT22;9519;51.890;8.970;2022-11-30T23:05:08;7.00;99.90
18781;DHT22;9519;51.890;8.970;2022-11-30T23:10:12;7.00;99.90
18781;DHT22;9519;51.890;8.970;2022-11-30T23:15:14;7.00;99.90
18781;DHT22;9519;51.890;8.970;2022-11-30T23:20:16;7.00;99.90
18781;DHT22;9519;51.890;8.970;2022-11-30T23:25:20;7.00;99.90
18781;DHT22;9519;51.890;8.970;2022-11-30T23:30:22;7.00;99.90
18781;DHT22;9519;51.890;8.970;2022-11-30T23:35:24;7.00;99.90
18781;DHT22;9519;51.890;8.970;2022-11-30T23:40:28;7.00;99.90
18781;DHT22;9519;51.890;8.970;2022-11-30T23:45:30;7.00;99.90
18781;DHT22;9519;51.890;8.970;2022-11-30T23:50:32;7.00;99.90
18781;DHT22;9519;51.890;8.970;2022-11-30T23:55:35;7.00;99.90
